createdAt,value
2018-03-31T00:00:58.475Z,94.37
2018-03-31T00:03:26.928Z,94.47
2018-03-31T00:05:55.715Z,94.18
2018-03-31T00:08:24.505Z,94.09
2018-03-31T00:10:52.782Z,94.44
2018-03-31T00:13:21.871Z,94.57
2018-03-31T00:15:51.408Z,94.81
2018-03-31T00:18:22.109Z,94.99
2018-03-31T00:20:52.125Z,95.28
2018-03-31T00:23:21.229Z,95.53
2018-03-31T00:25:50.609Z,95.57
2018-03-31T00:28:20.084Z,95.39
2018-03-31T00:30:48.533Z,95.50
2018-03-31T00:33:17.866Z,95.47
2018-03-31T00:35:47.068Z,95.58
2018-03-31T00:38:15.598Z,96.02
2018-03-31T00:40:43.982Z,96.03
2018-03-31T00:45:51.811Z,96.01
2018-03-31T00:48:21.220Z,96.49
2018-03-31T00:50:49.683Z,97.15
2018-03-31T00:53:18.264Z,97.75
2018-03-31T00:55:46.604Z,98.31
2018-03-31T00:58:15.458Z,98.31
2018-03-31T01:00:48.115Z,98.40
2018-03-31T01:03:16.699Z,98.43
2018-03-31T01:05:45.026Z,98.54
2018-03-31T01:08:14.566Z,98.62
2018-03-31T01:10:42.962Z,98.44
2018-03-31T01:13:11.468Z,98.63
2018-03-31T01:15:41.669Z,98.60
2018-03-31T01:18:09.960Z,98.61
2018-03-31T01:20:39.055Z,98.25
2018-03-31T01:23:09.382Z,97.65
2018-03-31T01:25:37.852Z,97.50
2018-03-31T01:28:06.995Z,97.57
2018-03-31T01:30:35.662Z,97.63
2018-03-31T01:33:04.781Z,97.59
2018-03-31T01:35:33.215Z,97.17
2018-03-31T01:38:01.696Z,97.54
2018-03-31T01:40:30.216Z,97.69
2018-03-31T01:42:58.756Z,97.88
2018-03-31T01:45:28.775Z,97.78
2018-03-31T01:47:58.147Z,97.92
2018-03-31T01:50:26.557Z,98.01
2018-03-31T01:52:56.232Z,98.15
2018-03-31T01:55:25.356Z,98.13
2018-03-31T01:57:54.464Z,97.96
2018-03-31T02:00:25.733Z,97.70
2018-03-31T02:02:54.496Z,97.70
2018-03-31T02:05:23.116Z,97.73
2018-03-31T02:07:58.482Z,97.72
2018-03-31T02:10:26.908Z,97.74
2018-03-31T02:12:55.391Z,97.83
2018-03-31T02:15:24.524Z,98.30
2018-03-31T02:17:53.269Z,98.57
2018-03-31T02:20:22.505Z,98.51
2018-03-31T02:22:51.759Z,98.33
2018-03-31T02:25:20.254Z,97.93
2018-03-31T02:27:48.639Z,97.66
2018-03-31T02:30:17.080Z,98.07
2018-03-31T02:32:45.492Z,98.22
2018-03-31T02:35:13.874Z,97.93
2018-03-31T02:37:42.462Z,98.08
2018-03-31T02:40:10.913Z,98.40
2018-03-31T02:42:39.309Z,98.61
2018-03-31T02:45:08.864Z,98.52
2018-03-31T02:47:37.308Z,98.42
2018-03-31T02:50:05.630Z,98.04
2018-03-31T02:52:36.564Z,98.21
2018-03-31T02:55:04.807Z,98.20
2018-03-31T02:57:33.520Z,98.27
2018-03-31T03:02:40.207Z,98.41
2018-03-31T03:05:08.500Z,98.16
2018-03-31T03:07:38.111Z,97.91
2018-03-31T03:10:06.469Z,97.81
2018-03-31T03:12:34.815Z,97.73
2018-03-31T03:15:05.032Z,97.51
2018-03-31T03:17:33.113Z,97.40
2018-03-31T03:20:01.985Z,97.52
2018-03-31T03:22:30.285Z,97.32
2018-03-31T03:24:58.364Z,97.14
2018-03-31T03:27:26.434Z,96.97
2018-03-31T03:29:56.596Z,96.63
2018-03-31T03:32:24.827Z,96.31
2018-03-31T03:34:53.004Z,95.86
2018-03-31T03:37:21.176Z,95.81
2018-03-31T03:39:49.463Z,95.09
2018-03-31T03:42:17.731Z,94.12
2018-03-31T03:44:47.543Z,93.35
2018-03-31T03:47:15.820Z,92.86
2018-03-31T03:49:44.096Z,91.98
2018-03-31T03:52:12.174Z,91.61
2018-03-31T03:54:40.544Z,91.55
2018-03-31T03:57:08.600Z,91.62
2018-03-31T03:59:38.709Z,91.72
2018-03-31T04:02:06.712Z,91.87
2018-03-31T04:04:35.608Z,91.71
2018-03-31T04:07:06.961Z,91.63
2018-03-31T04:09:35.227Z,91.42
2018-03-31T04:12:03.196Z,91.38
2018-03-31T04:14:31.381Z,91.22
2018-03-31T04:16:59.399Z,91.12
2018-03-31T04:19:27.756Z,90.29
2018-03-31T04:21:56.205Z,90.51
2018-03-31T04:24:25.171Z,90.45
2018-03-31T04:26:53.511Z,90.22
2018-03-31T04:29:21.804Z,89.98
2018-03-31T04:31:50.133Z,88.79
2018-03-31T04:34:18.307Z,88.02
2018-03-31T04:36:49.147Z,87.54
2018-03-31T04:39:17.414Z,86.75
2018-03-31T04:41:45.502Z,85.97
2018-03-31T04:44:15.509Z,85.71
2018-03-31T04:46:43.890Z,83.79
2018-03-31T04:49:12.596Z,82.60
2018-03-31T04:51:40.787Z,81.42
2018-03-31T04:54:09.041Z,81.47
2018-03-31T04:56:37.838Z,81.11
2018-03-31T04:59:08.595Z,80.87
2018-03-31T05:01:36.951Z,79.49
2018-03-31T05:04:05.252Z,78.88
2018-03-31T05:06:34.691Z,77.25
2018-03-31T05:09:04.813Z,76.26
2018-03-31T05:11:33.961Z,75.40
2018-03-31T05:14:04.970Z,74.85
2018-03-31T05:16:33.148Z,75.12
2018-03-31T05:19:01.321Z,74.16
2018-03-31T05:21:29.422Z,72.96
2018-03-31T05:23:57.464Z,72.34
2018-03-31T05:26:25.588Z,74.49
2018-03-31T05:28:54.878Z,75.82
2018-03-31T05:31:23.337Z,75.11
2018-03-31T05:33:53.959Z,75.52
2018-03-31T05:36:24.320Z,75.45
2018-03-31T05:38:52.602Z,74.64
2018-03-31T05:41:20.586Z,73.36
2018-03-31T05:43:48.909Z,71.98
2018-03-31T05:46:17.018Z,70.54
2018-03-31T05:48:46.182Z,68.58
2018-03-31T05:51:14.460Z,67.64
2018-03-31T05:53:43.253Z,66.53
2018-03-31T05:56:16.670Z,65.80
2018-03-31T05:58:48.055Z,65.19
2018-03-31T06:01:17.904Z,65.12
2018-03-31T06:03:47.212Z,64.47
2018-03-31T06:06:19.589Z,63.54
2018-03-31T06:08:47.660Z,65.07
2018-03-31T06:11:16.837Z,65.32
2018-03-31T06:13:45.341Z,65.23
2018-03-31T06:16:13.306Z,66.55
2018-03-31T06:18:41.383Z,64.73
2018-03-31T06:21:12.124Z,65.42
2018-03-31T06:23:40.288Z,64.00
2018-03-31T06:26:09.289Z,67.09
2018-03-31T06:28:37.469Z,67.94
2018-03-31T06:31:05.594Z,73.10
2018-03-31T06:33:33.834Z,72.36
2018-03-31T06:36:03.678Z,70.57
2018-03-31T06:38:31.796Z,70.04
2018-03-31T06:40:59.888Z,68.90
2018-03-31T06:46:01.763Z,65.13
2018-03-31T06:48:29.925Z,64.42
2018-03-31T06:50:58.848Z,65.32
2018-03-31T06:53:26.991Z,64.55
2018-03-31T06:55:55.880Z,63.07
2018-03-31T06:58:24.977Z,61.65
2018-03-31T07:00:53.048Z,59.73
2018-03-31T07:03:21.433Z,57.64
2018-03-31T07:05:49.748Z,56.75
2018-03-31T07:08:17.872Z,58.42
2018-03-31T07:10:46.046Z,58.79
2018-03-31T07:13:16.244Z,59.18
2018-03-31T07:15:45.215Z,59.52
2018-03-31T07:18:13.237Z,59.72
2018-03-31T07:20:42.270Z,61.50
2018-03-31T07:23:10.244Z,60.79
2018-03-31T07:25:38.278Z,59.03
2018-03-31T07:28:08.905Z,57.93
2018-03-31T07:30:37.036Z,57.60
2018-03-31T07:33:05.273Z,57.67
2018-03-31T07:38:07.146Z,56.48
2018-03-31T07:40:36.335Z,57.51
2018-03-31T07:43:05.589Z,58.26
2018-03-31T07:45:33.717Z,58.27
2018-03-31T07:48:01.734Z,57.57
2018-03-31T07:50:31.703Z,57.70
2018-03-31T07:52:59.856Z,58.11
2018-03-31T07:55:27.945Z,60.45
2018-03-31T07:57:58.994Z,60.37
2018-03-31T08:00:28.188Z,61.66
2018-03-31T08:02:56.159Z,61.41
2018-03-31T08:05:26.369Z,60.86
2018-03-31T08:07:54.757Z,60.48
2018-03-31T08:10:23.268Z,61.22
2018-03-31T08:15:25.023Z,60.08
2018-03-31T08:17:53.601Z,61.98
2018-03-31T08:20:22.747Z,62.08
2018-03-31T08:22:51.513Z,61.34
2018-03-31T08:25:20.521Z,61.34
2018-03-31T08:27:49.403Z,62.63
2018-03-31T08:30:18.413Z,61.60
2018-03-31T08:32:46.442Z,62.84
2018-03-31T08:37:48.379Z,62.25
2018-03-31T08:40:16.387Z,62.96
2018-03-31T08:42:45.322Z,63.40
2018-03-31T08:45:13.477Z,64.74
2018-03-31T08:47:41.637Z,63.53
2018-03-31T08:50:11.908Z,63.58
2018-03-31T08:52:40.750Z,64.07
2018-03-31T08:55:09.024Z,63.21
2018-03-31T08:57:37.302Z,64.56
2018-03-31T09:00:05.465Z,64.99
2018-03-31T09:02:33.795Z,63.97
2018-03-31T09:05:02.759Z,63.00
2018-03-31T09:07:39.770Z,63.16
2018-03-31T09:10:09.587Z,62.31
2018-03-31T09:12:37.631Z,63.01
2018-03-31T09:15:05.804Z,62.99
2018-03-31T09:17:34.652Z,62.57
2018-03-31T09:20:02.837Z,62.61
2018-03-31T09:22:31.137Z,63.02
2018-03-31T09:24:59.314Z,63.54
2018-03-31T09:27:28.201Z,63.63
2018-03-31T09:29:56.308Z,63.64
2018-03-31T09:32:24.558Z,63.41
2018-03-31T09:34:52.762Z,65.80
2018-03-31T09:37:20.828Z,65.56
2018-03-31T09:39:48.871Z,65.17
2018-03-31T09:42:16.981Z,65.86
2018-03-31T09:44:44.988Z,66.17
2018-03-31T09:47:13.046Z,67.07
2018-03-31T09:49:42.079Z,68.84
2018-03-31T09:52:10.257Z,69.00
2018-03-31T09:54:38.329Z,66.08
2018-03-31T09:57:06.406Z,67.51
2018-03-31T09:59:34.475Z,68.33
2018-03-31T10:02:03.365Z,65.98
2018-03-31T10:04:31.535Z,67.46
2018-03-31T10:07:00.097Z,67.69
2018-03-31T10:09:28.600Z,66.61
2018-03-31T10:11:56.564Z,65.66
2018-03-31T10:14:24.590Z,64.53
2018-03-31T10:16:52.944Z,64.69
2018-03-31T10:19:21.102Z,65.48
2018-03-31T10:21:49.074Z,65.41
2018-03-31T10:24:19.030Z,65.07
2018-03-31T10:26:47.062Z,66.05
2018-03-31T10:29:15.146Z,66.53
2018-03-31T10:31:43.816Z,64.51
2018-03-31T10:34:11.723Z,65.68
2018-03-31T10:36:39.653Z,65.00
2018-03-31T10:39:09.673Z,65.01
2018-03-31T10:41:38.570Z,64.85
2018-03-31T10:44:07.253Z,63.95
2018-03-31T10:46:35.322Z,62.90
2018-03-31T10:49:03.447Z,63.86
2018-03-31T10:51:31.667Z,62.46
2018-03-31T10:54:04.763Z,62.45
2018-03-31T10:56:32.689Z,62.70
2018-03-31T10:59:01.726Z,62.16
2018-03-31T11:01:31.642Z,62.45
2018-03-31T11:03:59.877Z,62.74
2018-03-31T11:06:30.038Z,62.47
2018-03-31T11:09:04.454Z,61.80
2018-03-31T11:11:32.477Z,62.17
2018-03-31T11:14:00.440Z,61.93
2018-03-31T11:16:29.600Z,61.51
2018-03-31T11:18:57.639Z,60.37
2018-03-31T11:21:25.636Z,59.83
2018-03-31T11:23:54.710Z,60.48
2018-03-31T11:26:23.225Z,60.86
2018-03-31T11:28:51.185Z,60.88
2018-03-31T11:31:22.120Z,61.88
2018-03-31T11:33:50.217Z,63.46
2018-03-31T11:36:20.526Z,63.55
2018-03-31T11:38:50.304Z,63.75
2018-03-31T11:41:19.540Z,63.02
2018-03-31T11:43:47.577Z,63.33
2018-03-31T11:46:16.299Z,64.14
2018-03-31T11:48:44.420Z,63.06
2018-03-31T11:51:14.222Z,63.54
2018-03-31T11:53:42.361Z,64.28
2018-03-31T11:56:11.650Z,63.82
2018-03-31T11:58:39.732Z,63.62
2018-03-31T12:01:08.829Z,62.99
2018-03-31T12:03:38.232Z,63.18
2018-03-31T12:06:06.348Z,61.36
2018-03-31T12:08:36.174Z,61.93
2018-03-31T12:11:05.009Z,61.41
2018-03-31T12:13:34.039Z,61.21
2018-03-31T12:16:02.852Z,61.73
2018-03-31T12:18:31.052Z,62.44
2018-03-31T12:21:10.611Z,61.97
2018-03-31T12:23:38.517Z,61.98
2018-03-31T12:26:06.517Z,61.42
2018-03-31T12:28:34.712Z,62.34
2018-03-31T12:31:03.310Z,62.18
2018-03-31T12:33:31.416Z,63.35
2018-03-31T12:36:01.301Z,63.41
2018-03-31T12:38:29.482Z,64.07
2018-03-31T12:40:57.546Z,64.72
2018-03-31T12:43:25.606Z,65.22
2018-03-31T12:45:54.100Z,65.15
2018-03-31T12:48:22.376Z,64.72
2018-03-31T12:50:53.211Z,64.20
2018-03-31T12:53:22.236Z,64.21
2018-03-31T12:55:51.310Z,63.46
2018-03-31T12:58:20.349Z,62.28
2018-03-31T13:00:48.195Z,63.62
2018-03-31T13:03:16.240Z,63.60
2018-03-31T13:05:45.060Z,63.50
2018-03-31T13:08:14.923Z,62.89
2018-03-31T13:10:45.706Z,63.64
2018-03-31T13:13:13.879Z,63.34
2018-03-31T13:15:41.915Z,64.50
2018-03-31T13:18:10.896Z,64.30
2018-03-31T13:20:38.999Z,63.67
2018-03-31T13:23:06.964Z,63.62
2018-03-31T13:25:35.090Z,63.43
2018-03-31T13:28:03.212Z,62.89
2018-03-31T13:30:31.173Z,63.25
2018-03-31T13:32:59.397Z,62.81
2018-03-31T13:35:28.750Z,62.44
2018-03-31T13:37:56.938Z,62.13
2018-03-31T13:40:28.437Z,62.96
2018-03-31T13:42:57.466Z,62.48
2018-03-31T13:45:25.832Z,61.88
2018-03-31T13:47:55.697Z,63.47
2018-03-31T13:50:23.746Z,64.40
2018-03-31T13:52:52.627Z,64.48
2018-03-31T13:55:21.631Z,64.88
2018-03-31T13:57:49.708Z,65.37
2018-03-31T14:00:17.852Z,65.26
2018-03-31T14:02:45.951Z,65.65
2018-03-31T14:05:13.911Z,65.45
2018-03-31T14:07:42.000Z,66.04
2018-03-31T14:10:10.983Z,65.26
2018-03-31T14:12:39.984Z,65.74
2018-03-31T14:15:09.792Z,65.00
2018-03-31T14:20:10.851Z,66.11
2018-03-31T14:22:39.030Z,65.55
2018-03-31T14:27:40.407Z,64.68
2018-03-31T14:30:10.891Z,65.50
2018-03-31T14:32:39.923Z,64.54
2018-03-31T14:35:07.879Z,64.58
2018-03-31T14:37:36.085Z,64.16
2018-03-31T14:40:04.154Z,63.98
2018-03-31T14:42:33.232Z,64.24
2018-03-31T14:45:02.125Z,64.70
2018-03-31T14:47:30.160Z,65.03
2018-03-31T14:49:59.438Z,65.23
2018-03-31T14:52:27.508Z,65.21
2018-03-31T14:54:55.629Z,64.94
2018-03-31T14:57:23.823Z,65.17
2018-03-31T14:59:51.830Z,65.40
2018-03-31T15:02:19.981Z,66.67
2018-03-31T15:04:50.920Z,67.28
2018-03-31T15:07:20.145Z,67.73
2018-03-31T15:09:48.174Z,68.34
2018-03-31T15:12:17.320Z,68.32
2018-03-31T15:14:45.491Z,68.38
2018-03-31T15:17:14.492Z,68.72
2018-03-31T15:19:42.714Z,68.59
2018-03-31T15:22:11.601Z,69.01
2018-03-31T15:24:40.602Z,69.09
2018-03-31T15:27:10.099Z,69.39
2018-03-31T15:29:38.177Z,69.40
2018-03-31T15:32:06.556Z,69.35
2018-03-31T15:34:38.216Z,69.70
2018-03-31T15:37:06.290Z,69.60
2018-03-31T15:39:35.385Z,69.35
2018-03-31T15:42:03.567Z,69.76
2018-03-31T15:44:31.732Z,70.19
2018-03-31T15:46:59.706Z,70.46
2018-03-31T15:49:27.795Z,71.17
2018-03-31T15:51:55.770Z,71.81
2018-03-31T15:54:23.615Z,71.04
2018-03-31T15:56:51.696Z,71.63
2018-03-31T15:59:19.584Z,72.02
2018-03-31T16:01:47.552Z,72.28
2018-03-31T16:04:15.530Z,72.75
2018-03-31T16:06:43.439Z,73.16
2018-03-31T16:09:11.309Z,73.36
2018-03-31T16:11:44.077Z,73.30
2018-03-31T16:14:12.019Z,73.20
2018-03-31T16:16:39.919Z,72.87
2018-03-31T16:19:07.860Z,73.87
2018-03-31T16:21:35.778Z,74.44
2018-03-31T16:24:03.684Z,73.98
2018-03-31T16:26:31.617Z,74.91
2018-03-31T16:28:59.530Z,75.85
2018-03-31T16:31:27.392Z,76.69
2018-03-31T16:33:55.438Z,76.24
2018-03-31T16:36:23.332Z,75.73
2018-03-31T16:38:51.274Z,75.24
2018-03-31T16:41:20.026Z,74.85
2018-03-31T16:43:47.907Z,74.12
2018-03-31T16:46:15.752Z,73.42
2018-03-31T16:48:43.741Z,73.29
2018-03-31T16:51:11.747Z,73.04
2018-03-31T16:53:39.628Z,72.87
2018-03-31T16:56:07.570Z,72.91
2018-03-31T16:58:35.506Z,72.91
2018-03-31T17:01:03.365Z,73.12
2018-03-31T17:03:33.033Z,73.14
2018-03-31T17:06:00.892Z,73.03
2018-03-31T17:08:28.860Z,72.91
2018-03-31T17:10:56.825Z,72.84
2018-03-31T17:13:24.781Z,72.78
2018-03-31T17:15:52.739Z,72.60
2018-03-31T17:18:20.644Z,72.71
2018-03-31T17:20:48.519Z,72.65
2018-03-31T17:26:48.104Z,72.68
2018-03-31T17:29:16.104Z,72.68
2018-03-31T17:31:44.064Z,72.89
2018-03-31T17:34:12.001Z,72.98
2018-03-31T17:36:40.022Z,73.38
2018-03-31T17:39:07.969Z,73.64
2018-03-31T17:41:35.878Z,73.64
2018-03-31T17:44:03.867Z,73.50
2018-03-31T17:46:31.755Z,73.23
2018-03-31T17:48:59.682Z,72.83
2018-03-31T17:51:27.568Z,72.86
2018-03-31T17:53:55.463Z,73.13
2018-03-31T17:56:24.051Z,73.65
2018-03-31T17:58:51.906Z,73.80
2018-03-31T18:01:19.923Z,74.33
2018-03-31T18:03:49.421Z,74.31
2018-03-31T18:06:17.312Z,74.55
2018-03-31T18:08:45.233Z,74.62
2018-03-31T18:11:13.970Z,74.96
2018-03-31T18:13:43.573Z,75.37
2018-03-31T18:16:11.567Z,75.16
2018-03-31T18:18:45.797Z,75.27
2018-03-31T18:21:13.720Z,75.35
2018-03-31T18:23:41.612Z,75.23
2018-03-31T18:28:42.952Z,75.27
2018-03-31T18:31:10.893Z,75.56
2018-03-31T18:33:38.784Z,76.09
2018-03-31T18:36:09.500Z,76.40
2018-03-31T18:38:37.379Z,76.57
2018-03-31T18:41:05.270Z,76.80
2018-03-31T18:43:34.106Z,77.04
2018-03-31T18:46:01.968Z,77.08
2018-03-31T18:48:29.903Z,77.20
2018-03-31T18:50:58.625Z,77.50
2018-03-31T18:53:26.539Z,77.69
2018-03-31T18:55:54.427Z,77.72
2018-03-31T19:00:55.150Z,78.63
2018-03-31T19:03:23.141Z,78.77
2018-03-31T19:05:51.060Z,79.16
2018-03-31T19:08:19.073Z,79.45
2018-03-31T19:10:47.175Z,80.01
2018-03-31T19:13:15.610Z,80.64
2018-03-31T19:15:43.677Z,81.43
2018-03-31T19:18:11.667Z,81.32
2018-03-31T19:23:13.959Z,80.71
2018-03-31T19:25:42.856Z,80.48
2018-03-31T19:28:11.988Z,80.63
2018-03-31T19:30:46.576Z,80.65
2018-03-31T19:33:19.250Z,80.42
2018-03-31T19:35:52.957Z,80.26
2018-03-31T19:38:21.953Z,80.03
2018-03-31T19:40:50.332Z,79.71
2018-03-31T19:43:18.417Z,79.81
2018-03-31T19:45:47.392Z,80.26
2018-03-31T19:48:15.526Z,80.17
2018-03-31T19:50:43.645Z,80.22
2018-03-31T19:53:11.869Z,79.76
2018-03-31T19:55:39.730Z,80.01
2018-03-31T19:58:08.591Z,79.98
2018-03-31T20:00:36.524Z,80.23
2018-03-31T20:03:04.476Z,80.62
2018-03-31T20:05:32.648Z,81.10
2018-03-31T20:08:02.436Z,81.30
2018-03-31T20:10:30.367Z,81.36
2018-03-31T20:12:58.251Z,81.30
2018-03-31T20:15:26.200Z,81.42
2018-03-31T20:17:54.095Z,81.43
2018-03-31T20:20:21.979Z,81.44
2018-03-31T20:22:50.708Z,81.29
2018-03-31T20:25:18.559Z,81.17
2018-03-31T20:27:46.404Z,80.74
2018-03-31T20:30:14.369Z,80.44
2018-03-31T20:32:42.279Z,80.23
2018-03-31T20:35:10.331Z,80.19
2018-03-31T20:37:40.688Z,80.20
2018-03-31T20:40:08.608Z,80.21
2018-03-31T20:42:36.479Z,79.95
2018-03-31T20:45:06.979Z,80.12
2018-03-31T20:47:34.864Z,80.12
2018-03-31T20:50:02.766Z,80.16
2018-03-31T20:52:30.673Z,80.03
2018-03-31T20:54:58.611Z,80.28
2018-03-31T20:57:26.521Z,80.33
2018-03-31T20:59:55.487Z,80.28
2018-03-31T21:02:23.477Z,80.63
2018-03-31T21:04:51.596Z,80.44
2018-03-31T21:07:23.410Z,80.63
2018-03-31T21:09:52.696Z,80.65
2018-03-31T21:12:20.837Z,80.49
2018-03-31T21:14:48.957Z,80.71
2018-03-31T21:17:17.236Z,80.96
2018-03-31T21:19:45.428Z,81.10
2018-03-31T21:22:16.149Z,81.37
2018-03-31T21:24:44.160Z,81.49
2018-03-31T21:27:13.766Z,81.84
2018-03-31T21:29:42.746Z,82.14
2018-03-31T21:32:10.881Z,82.37
2018-03-31T21:34:38.965Z,82.84
2018-03-31T21:39:40.343Z,83.10
2018-03-31T21:42:09.329Z,82.95
2018-03-31T21:44:38.291Z,83.13
2018-03-31T21:47:06.229Z,82.08
2018-03-31T21:49:34.769Z,81.53
2018-03-31T21:52:04.209Z,80.79
2018-03-31T21:54:32.360Z,80.79
2018-03-31T21:57:00.570Z,80.48
2018-03-31T22:02:08.245Z,80.33
2018-03-31T22:04:36.226Z,80.39
2018-03-31T22:07:04.164Z,80.44
2018-03-31T22:09:32.150Z,80.16
2018-03-31T22:12:00.057Z,79.77
2018-03-31T22:14:33.421Z,79.66
2018-03-31T22:17:01.310Z,79.67
2018-03-31T22:19:29.270Z,79.42
2018-03-31T22:21:57.199Z,79.17
2018-03-31T22:24:25.098Z,78.88
2018-03-31T22:26:53.004Z,78.69
2018-03-31T22:29:20.932Z,79.59
2018-03-31T22:31:48.796Z,79.51
2018-03-31T22:34:16.664Z,79.88
2018-03-31T22:36:44.600Z,79.62
2018-03-31T22:39:12.452Z,79.13
2018-03-31T22:41:40.364Z,79.12
2018-03-31T22:44:08.262Z,79.22
2018-03-31T22:46:36.135Z,79.58
2018-03-31T22:49:03.994Z,79.07
2018-03-31T22:51:31.924Z,78.02
2018-03-31T22:53:59.806Z,78.36
2018-03-31T22:56:27.724Z,78.68
2018-03-31T22:58:55.623Z,78.51
2018-03-31T23:01:23.488Z,78.86
2018-03-31T23:03:51.725Z,78.84
2018-03-31T23:06:19.934Z,78.57
2018-03-31T23:08:48.092Z,78.39
2018-03-31T23:11:16.370Z,78.52
2018-03-31T23:13:45.477Z,78.52
2018-03-31T23:16:13.652Z,78.03
2018-03-31T23:18:41.884Z,77.77
2018-03-31T23:21:10.158Z,77.68
2018-03-31T23:23:38.327Z,77.18
2018-03-31T23:26:06.594Z,77.30
2018-03-31T23:28:36.624Z,77.37
2018-03-31T23:31:06.219Z,77.52
2018-03-31T23:33:34.594Z,77.34
2018-03-31T23:36:04.580Z,77.22
2018-03-31T23:38:32.596Z,76.97
2018-03-31T23:41:00.757Z,76.49
2018-03-31T23:43:28.758Z,76.15
2018-03-31T23:45:56.805Z,75.49
2018-03-31T23:48:25.692Z,75.05
2018-03-31T23:50:54.579Z,74.96
2018-03-31T23:53:22.476Z,74.68
2018-03-31T23:55:50.356Z,74.96
2018-03-31T23:58:19.200Z,74.62
